Stockholm, Maine
Current Conditions -  °F | °C
As of 5:54 PM on Friday 19 Dec 2014 (Local Time) from KCAR Reporting Station
Clear Clear  
Wind Chill: -13°   Ceiling: Unl
Heat Index: -8°   Visibility: 10mi
Dew Point: -11°   Wind: 8mph
Humidity: 81%   Direction: 340°NNW
Pressure: 29.99"   Gusts: NA
Location:  47.04°N, 68.14°W
Report Text: KCAR 192254Z AUTO 34007KT 10SM CLR M08/M11 A2999 RMK AO2 SLP169 T10781106
Loading
Personal Weather Stations






























Interactive Weather Map New forecast layout! Learn more

10-Day Weather Forecast

Advertisements
Track Severe Weather on mobile